Time;durP1;ratioP1;P1;durP2;ratioP2;P2;SDS_P1;SDS_P2;PMS_P1;PMS_P2;Temp;Humidity;BMP_temperature;BMP_pressure;BME280_temperature;BME280_humidity;BME280_pressure;Samples;Min_cycle;Max_cycle;Signal;HPM_P1;HPM_P2
2023/05/29 00:01:27;;;;;;;20.23;3.38;;;;;;;-146.27;74.84;82932.63;5054239;28;20101;-69
2023/05/29 00:03:52;;;;;;;19.20;3.45;;;;;;;-146.27;74.25;82888.44;5038160;28;20416;-69
2023/05/29 00:06:19;;;;;;;13.73;2.97;;;;;;;-146.27;75.04;82896.47;5052035;28;20385;-68
2023/05/29 00:08:45;;;;;;;20.60;3.08;;;;;;;-146.27;74.36;82930.63;5040343;28;20121;-70
2023/05/29 00:11:10;;;;;;;19.42;2.83;;;;;;;-146.27;74.90;82914.53;5045605;28;20104;-69
2023/05/29 00:13:35;;;;;;;13.70;2.25;;;;;;;-146.27;74.82;82900.47;5049638;28;20109;-69
2023/05/29 00:16:02;;;;;;;13.73;2.45;;;;;;;-146.27;74.15;82888.44;5051083;28;20453;-68
2023/05/29 00:18:27;;;;;;;11.77;2.15;;;;;;;-146.27;74.91;82918.56;5050354;28;20059;-68
2023/05/29 00:20:53;;;;;;;20.40;2.78;;;;;;;-146.27;74.63;82944.69;5030820;28;20381;-70
2023/05/29 00:23:18;;;;;;;15.32;2.33;;;;;;;-146.27;75.18;82958.75;5046336;28;20028;-75
2023/05/29 00:25:44;;;;;;;14.15;2.50;;;;;;;-146.27;75.03;82952.72;5054541;28;20020;-73
2023/05/29 00:28:09;;;;;;;17.75;2.97;;;;;;;-146.27;75.86;82978.84;5046444;28;20033;-74
2023/05/29 00:30:35;;;;;;;15.88;2.45;;;;;;;-146.27;75.23;82962.75;5030604;28;20477;-75
2023/05/29 00:33:00;;;;;;;13.13;2.13;;;;;;;-146.27;75.78;82954.72;5034415;28;20024;-73
2023/05/29 00:35:26;;;;;;;13.27;3.08;;;;;;;-146.27;75.37;82940.66;5030389;28;20148;-74
2023/05/29 00:37:51;;;;;;;15.30;3.17;;;;;;;-146.27;75.14;82972.81;5035600;28;20028;-73
2023/05/29 00:40:16;;;;;;;14.10;2.22;;;;;;;-146.27;75.65;82910.53;5046389;28;20032;-72
2023/05/29 00:42:42;;;;;;;11.48;1.83;;;;;;;-146.27;75.81;82984.88;5041819;28;20035;-75
2023/05/29 00:45:08;;;;;;;15.05;2.60;;;;;;;-146.27;76.36;82980.84;5033984;28;20029;-74
2023/05/29 00:47:33;;;;;;;17.70;2.60;;;;;;;-146.27;76.10;82988.88;5033750;28;20052;-75
2023/05/29 00:49:59;;;;;;;14.23;2.13;;;;;;;-146.27;75.42;82990.88;5037795;28;20021;-73
2023/05/29 00:52:26;;;;;;;13.40;2.40;;;;;;;-146.27;75.64;83010.97;5042372;28;20138;-72
2023/05/29 00:54:52;;;;;;;16.60;2.35;;;;;;;-146.27;75.95;82996.91;5033002;28;20424;-75
2023/05/29 00:57:17;;;;;;;14.73;2.58;;;;;;;-146.27;76.54;83037.09;5030419;28;20029;-75
2023/05/29 00:59:44;;;;;;;14.50;2.60;;;;;;;-146.27;76.17;83019.03;5039397;28;20550;-72
2023/05/29 01:02:10;;;;;;;15.02;3.22;;;;;;;-146.27;76.56;83013.00;5035952;28;20552;-74
2023/05/29 01:04:36;;;;;;;14.02;2.40;;;;;;;-146.27;76.82;83067.25;5038054;28;20032;-74
2023/05/29 01:07:04;;;;;;;11.52;2.17;;;;;;;-146.27;76.50;83037.09;5043278;28;20035;-74
2023/05/29 01:09:31;;;;;;;12.68;2.60;;;;;;;-146.27;76.36;83057.19;5049388;28;20032;-74
2023/05/29 01:12:15;;;;;;;15.52;2.40;;;;;;;-146.27;76.79;83053.16;5049892;28;20041;-74
2023/05/29 01:14:46;;;;;;;16.08;2.33;;;;;;;-146.27;76.27;83059.19;5047327;28;20121;-74
2023/05/29 01:17:32;;;;;;;18.67;2.55;;;;;;;-146.27;76.82;83117.47;5042772;28;20029;-74
2023/05/29 01:20:13;;;;;;;15.45;3.38;;;;;;;-146.27;76.54;83067.25;5036559;28;20079;-74
2023/05/29 01:23:04;;;;;;;13.82;2.22;;;;;;;-146.27;76.84;83099.38;5048153;28;20025;-74
2023/05/29 01:25:46;;;;;;;10.05;2.50;;;;;;;-146.27;76.26;83099.38;5035606;28;20122;-74
2023/05/29 01:28:12;;;;;;;14.52;2.22;;;;;;;-146.27;76.74;83135.53;5039930;28;20059;-74
2023/05/29 01:30:40;;;;;;;13.18;2.28;;;;;;;-146.27;76.11;83109.44;5046367;28;20092;-74
2023/05/29 01:33:06;;;;;;;19.67;2.30;;;;;;;-146.27;76.67;83119.47;5048328;28;20047;-74
2023/05/29 01:35:32;;;;;;;12.80;2.65;;;;;;;-146.27;76.27;83103.41;5040365;28;20473;-74
2023/05/29 01:37:57;;;;;;;13.02;2.80;;;;;;;-146.27;76.58;83117.47;5037618;28;20488;-74
2023/05/29 01:40:23;;;;;;;16.55;2.67;;;;;;;-146.27;76.07;83135.53;5035693;28;20056;-74
2023/05/29 01:42:49;;;;;;;12.75;2.42;;;;;;;-146.27;75.73;83105.41;5044654;28;20057;-74
2023/05/29 01:45:16;;;;;;;15.48;2.65;;;;;;;-146.27;75.72;83127.50;5040832;28;20116;-74
2023/05/29 01:47:42;;;;;;;16.67;2.63;;;;;;;-146.27;75.92;83115.47;5038619;28;20033;-75
2023/05/29 01:50:10;;;;;;;11.00;2.13;;;;;;;-146.27;75.40;83137.56;5033237;28;20070;-75
2023/05/29 01:52:36;;;;;;;16.05;3.25;;;;;;;-146.27;75.62;83131.53;5047085;28;20110;-74
2023/05/29 01:55:01;;;;;;;9.68;2.67;;;;;;;-146.27;76.00;83151.63;5047728;28;20069;-74
2023/05/29 01:57:27;;;;;;;16.75;2.65;;;;;;;-146.27;75.28;83153.63;5046478;28;20033;-74
2023/05/29 01:59:54;;;;;;;15.25;2.10;;;;;;;-146.27;75.83;83155.63;5049096;28;20029;-74
2023/05/29 02:02:21;;;;;;;15.02;3.28;;;;;;;-146.27;76.63;83183.78;5044834;28;20025;-75
2023/05/29 02:04:47;;;;;;;12.48;2.80;;;;;;;-146.27;75.40;83177.75;5032421;28;20035;-75
2023/05/29 02:07:12;;;;;;;12.07;2.90;;;;;;;-146.27;75.49;83173.72;5035433;28;20025;-74
2023/05/29 02:09:38;;;;;;;10.70;1.95;;;;;;;-146.27;75.86;83143.59;5047435;28;20053;-72
2023/05/29 02:12:03;;;;;;;18.48;2.42;;;;;;;-146.27;76.32;83181.75;5037927;28;20509;-74
2023/05/29 02:14:29;;;;;;;16.45;2.38;;;;;;;-146.27;76.60;83203.88;5046276;28;20538;-74
2023/05/29 02:16:54;;;;;;;11.82;2.80;;;;;;;-146.27;76.60;83215.91;5034344;28;20026;-74
2023/05/29 02:19:19;;;;;;;15.68;1.90;;;;;;;-146.27;78.09;83173.72;5044620;28;20878;-75
2023/05/29 02:21:47;;;;;;;8.55;2.00;;;;;;;-146.27;77.62;83189.78;5033463;28;20022;-74
2023/05/29 02:24:12;;;;;;;16.73;1.98;;;;;;;-146.27;77.02;83203.88;5033261;28;20033;-74
2023/05/29 02:26:37;;;;;;;17.15;2.30;;;;;;;-146.27;77.54;83232.00;5036917;28;20046;-74
2023/05/29 02:29:06;;;;;;;11.70;2.05;;;;;;;-146.27;76.88;83292.28;5051847;28;20542;-75
2023/05/29 02:31:32;;;;;;;11.20;2.10;;;;;;;-146.27;76.91;83189.78;5050709;28;20116;-74
2023/05/29 02:33:57;;;;;;;15.38;2.45;;;;;;;-146.27;77.24;83183.78;5038320;28;20096;-74
2023/05/29 02:36:22;;;;;;;14.68;2.05;;;;;;;-146.27;78.05;83213.91;5039397;28;20037;-73
2023/05/29 02:38:48;;;;;;;12.43;2.10;;;;;;;-146.27;76.74;83151.63;5041944;28;20108;-74
2023/05/29 02:41:13;;;;;;;14.88;2.58;;;;;;;-146.27;76.91;83185.78;5045951;28;20048;-75
2023/05/29 02:43:39;;;;;;;12.85;1.95;;;;;;;-146.27;76.69;83157.66;5044581;28;20549;-74
2023/05/29 02:46:04;;;;;;;11.80;1.73;;;;;;;-146.27;76.65;83175.72;5044641;28;20116;-75
2023/05/29 02:48:30;;;;;;;15.55;2.80;;;;;;;-146.27;77.05;83149.63;5045418;28;20432;-75
2023/05/29 02:50:55;;;;;;;11.10;1.98;;;;;;;-146.27;75.96;83151.63;5040372;28;20052;-74
2023/05/29 02:53:20;;;;;;;15.63;2.25;;;;;;;-146.27;75.33;83171.72;5037885;28;20128;-74
2023/05/29 02:55:46;;;;;;;13.38;2.25;;;;;;;-146.27;76.31;83109.44;5033108;28;20036;-73
2023/05/29 02:58:12;;;;;;;14.45;2.17;;;;;;;-146.27;75.37;83145.59;5037607;28;20037;-74
2023/05/29 03:00:38;;;;;;;14.70;2.50;;;;;;;-146.27;75.81;83161.66;5047384;28;20515;-74
2023/05/29 03:03:04;;;;;;;12.25;1.63;;;;;;;-146.27;75.32;83163.69;5041421;28;20044;-74
2023/05/29 03:05:29;;;;;;;9.55;1.98;;;;;;;-146.27;76.19;83171.72;5043866;28;20025;-74
2023/05/29 03:07:55;;;;;;;15.45;2.33;;;;;;;-146.27;76.72;83173.72;5045088;28;20449;-74
2023/05/29 03:10:20;;;;;;;13.45;2.00;;;;;;;-146.27;75.15;83111.44;5040192;28;20504;-73
2023/05/29 03:12:46;;;;;;;8.63;2.75;;;;;;;-146.27;75.30;83159.66;5047217;28;20041;-74
2023/05/29 03:15:12;;;;;;;15.20;2.35;;;;;;;-146.27;75.11;83123.50;5032378;28;20405;-75
2023/05/29 03:17:38;;;;;;;12.40;2.63;;;;;;;-146.27;75.10;83137.56;5035971;28;20032;-74
2023/05/29 03:20:07;;;;;;;18.98;2.30;;;;;;;-146.27;75.09;83143.59;5042608;28;20083;-73
2023/05/29 03:22:34;;;;;;;19.10;2.65;;;;;;;-146.27;75.29;83199.84;5032608;28;20025;-74
2023/05/29 03:25:04;;;;;;;15.27;2.63;;;;;;;-146.27;76.64;83173.72;5033575;28;20043;-73
2023/05/29 03:27:30;;;;;;;9.85;2.28;;;;;;;-146.27;75.87;83187.78;5049914;28;20032;-74
2023/05/29 03:29:56;;;;;;;19.05;2.80;;;;;;;-146.27;75.54;83127.50;5043342;28;20469;-75
2023/05/29 03:32:21;;;;;;;9.65;2.38;;;;;;;-146.27;75.76;83129.53;5038007;28;20032;-74
2023/05/29 03:34:47;;;;;;;17.02;2.05;;;;;;;-146.27;75.45;83119.47;5034537;28;20029;-74
2023/05/29 03:37:13;;;;;;;12.07;2.10;;;;;;;-146.27;76.29;83183.78;5031994;28;20037;-74
2023/05/29 03:39:38;;;;;;;21.75;2.70;;;;;;;-146.27;76.00;83147.59;5042082;28;20082;-74
2023/05/29 03:42:04;;;;;;;19.75;2.40;;;;;;;-146.27;75.89;83175.72;5038533;28;20056;-75
2023/05/29 03:44:29;;;;;;;13.20;1.90;;;;;;;-146.27;76.25;83189.78;5031335;28;20029;-73
2023/05/29 03:46:55;;;;;;;20.05;2.97;;;;;;;-146.27;75.62;83177.75;5037866;28;20032;-74
2023/05/29 03:49:20;;;;;;;15.20;2.92;;;;;;;-146.27;75.75;83179.75;5041152;28;20024;-75
2023/05/29 03:51:45;;;;;;;9.40;1.98;;;;;;;-146.27;76.82;83131.53;5053464;28;20021;-74
2023/05/29 03:54:11;;;;;;;13.93;2.17;;;;;;;-146.27;76.31;83177.75;5050166;28;20162;-73
2023/05/29 03:56:36;;;;;;;17.25;1.98;;;;;;;-146.27;76.38;83135.53;5051783;28;20033;-75
2023/05/29 03:59:02;;;;;;;11.90;2.30;;;;;;;-146.27;75.92;83147.59;5035155;28;20018;-74
2023/05/29 04:01:28;;;;;;;14.45;2.60;;;;;;;-146.27;76.12;83179.75;5031794;28;20025;-73
2023/05/29 04:03:53;;;;;;;16.67;2.25;;;;;;;-146.27;76.20;83135.53;5051235;28;20043;-74
2023/05/29 04:06:19;;;;;;;13.00;1.92;;;;;;;-146.27;75.81;83155.63;5037740;28;20106;-74
2023/05/29 04:08:44;;;;;;;15.30;2.92;;;;;;;-146.27;75.07;83151.63;5033442;28;20401;-73
2023/05/29 04:11:11;;;;;;;12.63;1.95;;;;;;;-146.27;75.65;83091.34;5048998;28;20025;-72
2023/05/29 04:13:37;;;;;;;9.85;2.00;;;;;;;-146.27;74.68;83087.31;5031344;28;20029;-69
2023/05/29 04:16:03;;;;;;;12.65;2.13;;;;;;;-146.27;74.95;83091.34;5051240;28;20113;-69
2023/05/29 04:18:28;;;;;;;13.00;1.95;;;;;;;-146.27;74.90;83119.47;5038631;28;20036;-68
2023/05/29 04:20:54;;;;;;;12.07;2.42;;;;;;;-146.27;76.60;83071.25;5037883;28;20020;-71
2023/05/29 04:23:20;;;;;;;22.95;2.13;;;;;;;-146.27;75.82;83133.53;5042853;28;20116;-69
2023/05/29 04:25:45;;;;;;;13.50;2.15;;;;;;;-146.27;75.56;83145.59;5035813;28;20031;-68
2023/05/29 04:28:11;;;;;;;10.88;1.45;;;;;;;-146.27;75.37;83119.47;5044342;28;20505;-70
2023/05/29 04:30:38;;;;;;;19.42;2.22;;;;;;;-146.27;75.48;83091.34;5046688;28;20090;-68
2023/05/29 04:33:04;;;;;;;21.30;3.00;;;;;;;-146.27;75.72;83101.38;5041329;28;20124;-70
2023/05/29 04:35:29;;;;;;;14.77;2.03;;;;;;;-146.27;76.55;83097.38;5030841;28;20159;-68
2023/05/29 04:37:56;;;;;;;13.63;2.38;;;;;;;-146.27;76.27;83105.41;5030877;28;20028;-68
2023/05/29 04:40:22;;;;;;;17.42;2.03;;;;;;;-146.27;76.19;83085.31;5042842;28;20144;-67
2023/05/29 04:42:47;;;;;;;12.68;2.63;;;;;;;-146.27;76.08;83125.50;5038431;28;20100;-69
2023/05/29 04:45:13;;;;;;;17.05;2.70;;;;;;;-146.27;76.68;83071.25;5034134;28;20025;-69
2023/05/29 04:47:43;;;;;;;14.65;2.50;;;;;;;-146.27;75.89;83059.19;5048935;28;20038;-69
2023/05/29 04:50:17;;;;;;;16.08;1.75;;;;;;;-146.27;76.22;83079.28;5046961;28;20044;-69
2023/05/29 04:52:43;;;;;;;13.07;2.45;;;;;;;-146.27;75.21;83051.16;5050496;28;20445;-70
2023/05/29 04:55:10;;;;;;;13.07;2.22;;;;;;;-146.27;75.26;83077.28;5030720;28;20418;-69
2023/05/29 04:57:35;;;;;;;13.80;2.50;;;;;;;-146.27;74.52;83071.25;5037285;28;20029;-69
2023/05/29 05:00:05;;;;;;;16.35;3.92;;;;;;;-146.27;75.48;83093.34;5045020;28;20024;-68
2023/05/29 05:02:30;;;;;;;19.35;2.60;;;;;;;-146.27;75.70;83123.50;5044321;28;20025;-70
2023/05/29 05:04:56;;;;;;;11.57;2.22;;;;;;;-146.27;75.69;83065.22;5034780;28;20029;-69
2023/05/29 05:07:21;;;;;;;10.38;1.83;;;;;;;-146.27;74.77;83037.09;5050568;28;20095;-68
2023/05/29 05:09:47;;;;;;;9.65;2.25;;;;;;;-146.27;75.18;83095.38;5034627;28;20021;-69
2023/05/29 05:12:12;;;;;;;13.70;2.00;;;;;;;-146.27;75.07;83045.13;5047445;28;20057;-70
2023/05/29 05:14:37;;;;;;;20.58;2.20;;;;;;;-146.27;74.50;83035.09;5045312;28;20025;-68
2023/05/29 05:17:03;;;;;;;9.18;2.15;;;;;;;-146.27;74.20;83067.25;5049333;28;20036;-68
2023/05/29 05:19:29;;;;;;;11.27;2.22;;;;;;;-146.27;73.63;83087.31;5047939;28;20029;-68
2023/05/29 05:21:54;;;;;;;16.23;2.20;;;;;;;-146.27;74.11;83069.25;5048611;28;20032;-68
2023/05/29 05:24:19;;;;;;;16.63;2.28;;;;;;;-146.27;74.92;83057.19;5036534;28;20023;-68
2023/05/29 05:26:45;;;;;;;10.85;2.20;;;;;;;-146.27;75.01;83059.19;5033196;28;20064;-68
2023/05/29 05:29:10;;;;;;;11.85;2.10;;;;;;;-146.27;73.62;83057.19;5036744;28;20025;-69
2023/05/29 05:31:35;;;;;;;15.05;1.70;;;;;;;-146.27;73.71;83059.19;5046181;28;20016;-68
2023/05/29 05:34:01;;;;;;;11.15;1.90;;;;;;;-146.27;74.02;83055.19;5047392;28;20064;-68
2023/05/29 05:36:26;;;;;;;11.90;2.20;;;;;;;-146.27;74.08;83010.97;5052626;28;20032;-70
2023/05/29 05:38:52;;;;;;;15.50;2.72;;;;;;;-146.27;73.97;83017.00;5051981;28;20079;-70
2023/05/29 05:41:17;;;;;;;15.40;2.47;;;;;;;-146.27;74.22;83065.22;5050053;28;20025;-69
2023/05/29 05:43:42;;;;;;;16.30;2.22;;;;;;;-146.27;73.29;83031.06;5047088;28;20105;-70
2023/05/29 05:46:07;;;;;;;13.60;2.88;;;;;;;-146.27;73.93;83035.09;5039098;28;20118;-69
2023/05/29 05:48:33;;;;;;;15.38;2.65;;;;;;;-146.27;74.27;82982.84;5038662;28;20452;-69
2023/05/29 05:50:58;;;;;;;14.32;2.58;;;;;;;-146.27;73.49;83004.94;5040615;28;20496;-70
2023/05/29 05:53:24;;;;;;;13.73;2.25;;;;;;;-146.27;73.34;82984.88;5044696;28;20468;-68
2023/05/29 05:55:49;;;;;;;20.33;2.72;;;;;;;-146.27;73.82;82976.81;5044971;28;20021;-69
2023/05/29 05:58:15;;;;;;;17.33;2.03;;;;;;;-146.27;73.59;82982.84;5045817;28;20021;-69
2023/05/29 06:00:40;;;;;;;22.35;3.15;;;;;;;-146.27;73.81;82966.78;5055340;28;20473;-68
2023/05/29 06:03:05;;;;;;;11.35;2.20;;;;;;;-146.27;72.54;82962.75;5047298;28;20104;-68
2023/05/29 06:05:31;;;;;;;24.15;4.97;;;;;;;-146.27;72.24;82902.50;5045450;28;20581;-70
2023/05/29 06:07:56;;;;;;;16.60;2.95;;;;;;;-146.27;72.16;82942.66;5042841;28;20096;-67
2023/05/29 06:10:22;;;;;;;13.30;2.42;;;;;;;-146.27;70.68;82966.78;5041880;28;20038;-71
2023/05/29 06:12:47;;;;;;;11.90;2.20;;;;;;;-146.27;70.86;82898.47;5046341;28;20081;-68
2023/05/29 06:15:13;;;;;;;22.27;2.88;;;;;;;-146.27;69.21;82910.53;5034213;28;20021;-72
2023/05/29 06:17:39;;;;;;;17.60;2.47;;;;;;;-146.27;67.92;82904.50;5068258;28;20035;-73
2023/05/29 06:20:09;;;;;;;15.20;2.35;;;;;;;-146.27;67.27;82958.75;5050961;28;20029;-73
2023/05/29 06:22:35;;;;;;;14.05;2.90;;;;;;;-146.27;67.86;82934.63;5052741;28;20142;-73
2023/05/29 06:25:00;;;;;;;14.63;2.53;;;;;;;-146.27;68.27;82938.66;5046020;28;20055;-74
2023/05/29 06:27:26;;;;;;;16.50;2.95;;;;;;;-146.27;68.30;82938.66;5032201;28;20094;-75
2023/05/29 06:29:52;;;;;;;15.60;2.72;;;;;;;-146.27;67.90;82918.56;5031661;28;20473;-74
2023/05/29 06:32:17;;;;;;;13.35;2.63;;;;;;;-146.27;67.57;82946.69;5043002;28;20083;-75
2023/05/29 06:34:42;;;;;;;15.70;2.65;;;;;;;-146.27;66.61;82902.50;5049519;28;20024;-75
2023/05/29 06:37:08;;;;;;;14.35;2.17;;;;;;;-146.27;67.17;82940.66;5037078;28;20033;-74
2023/05/29 06:39:36;;;;;;;14.93;2.47;;;;;;;-146.27;68.75;82918.56;5050336;28;20025;-74
2023/05/29 06:42:02;;;;;;;14.02;2.40;;;;;;;-146.27;67.72;82888.44;5058962;28;20029;-75
2023/05/29 06:44:27;;;;;;;24.15;2.90;;;;;;;-146.27;67.86;82902.50;5051307;28;20033;-74
2023/05/29 06:46:52;;;;;;;14.85;2.20;;;;;;;-146.27;67.32;82892.44;5047172;28;20039;-74
2023/05/29 06:49:18;;;;;;;15.18;2.30;;;;;;;-146.27;67.56;82900.47;5038417;28;20465;-74
2023/05/29 06:51:44;;;;;;;20.75;2.55;;;;;;;-146.27;65.80;82830.16;5045913;28;20051;-73
2023/05/29 06:54:10;;;;;;;14.73;3.20;;;;;;;-146.27;67.58;82862.31;5049169;28;20112;-74
2023/05/29 06:56:35;;;;;;;16.05;2.08;;;;;;;-146.27;66.62;82818.13;5044541;28;20162;-74
2023/05/29 06:59:01;;;;;;;11.60;2.17;;;;;;;-146.27;67.18;82812.09;5062989;28;20051;-74
2023/05/29 07:01:26;;;;;;;12.15;2.20;;;;;;;-146.27;65.88;82753.81;5036988;28;20496;-73
2023/05/29 07:03:53;;;;;;;19.15;2.15;;;;;;;-146.27;63.62;82749.81;5042390;28;20120;-74
2023/05/29 07:06:19;;;;;;;13.55;2.00;;;;;;;-146.27;61.40;82765.88;5037236;28;20029;-73
2023/05/29 07:08:45;;;;;;;9.55;2.50;;;;;;;-146.27;60.64;82721.69;5040829;28;20036;-74
2023/05/29 07:11:10;;;;;;;12.32;2.22;;;;;;;-146.27;60.76;82709.63;5051536;28;20451;-74
2023/05/29 07:13:36;;;;;;;17.20;2.33;;;;;;;-146.27;59.51;82749.81;5035780;28;20573;-74
2023/05/29 07:16:01;;;;;;;7.22;1.55;;;;;;;-146.27;60.62;82727.72;5048629;28;20158;-71
2023/05/29 07:18:27;;;;;;;13.95;2.50;;;;;;;-146.27;59.21;82739.75;5044884;28;20449;-73
2023/05/29 07:20:52;;;;;;;14.75;2.38;;;;;;;-146.27;58.85;82721.69;5043025;28;20032;-73
2023/05/29 07:23:17;;;;;;;18.25;3.95;;;;;;;-146.27;59.92;82699.59;5033018;28;21545;-73
2023/05/29 07:25:43;;;;;;;7.60;2.65;;;;;;;-146.27;59.84;82663.41;5053851;28;20025;-71
2023/05/29 07:28:08;;;;;;;11.25;2.38;;;;;;;-146.27;59.62;82673.47;5050556;28;20056;-70
2023/05/29 07:30:34;;;;;;;13.00;3.42;;;;;;;-146.27;58.55;82649.34;5053279;28;20021;-68
2023/05/29 07:32:59;;;;;;;16.17;1.80;;;;;;;-146.27;57.12;82717.66;5047085;28;20031;-70
2023/05/29 07:35:25;;;;;;;14.52;3.35;;;;;;;-146.27;57.66;82651.38;5041439;28;20272;-69
2023/05/29 07:37:52;;;;;;;9.45;1.98;;;;;;;-146.27;58.08;82665.44;5034288;28;20477;-68
2023/05/29 07:40:17;;;;;;;9.93;1.95;;;;;;;-146.27;59.16;82657.41;5047628;28;20188;-71
2023/05/29 07:42:43;;;;;;;10.35;1.90;;;;;;;-146.27;59.01;82679.50;5040014;28;20033;-73
2023/05/29 07:45:09;;;;;;;13.63;2.35;;;;;;;-146.27;59.84;82667.44;5030206;28;20029;-71
2023/05/29 07:47:34;;;;;;;12.13;2.30;;;;;;;-146.27;60.11;82683.50;5041209;28;20033;-71
2023/05/29 07:49:59;;;;;;;10.13;1.70;;;;;;;-146.27;60.52;82673.47;5048127;28;20028;-75
2023/05/29 07:52:25;;;;;;;17.15;3.20;;;;;;;-146.27;59.62;82661.41;5042079;28;20028;-73
2023/05/29 07:54:52;;;;;;;11.10;2.75;;;;;;;-146.27;59.72;82633.28;5038989;28;20043;-72
2023/05/29 07:57:17;;;;;;;9.48;2.40;;;;;;;-146.27;59.18;82599.13;5036315;28;20041;-72
2023/05/29 07:59:43;;;;;;;14.65;2.20;;;;;;;-146.27;59.41;82573.00;5039205;28;20032;-72
2023/05/29 08:02:08;;;;;;;12.15;1.85;;;;;;;-146.27;57.52;82550.91;5038555;28;20500;-72
2023/05/29 08:04:34;;;;;;;8.70;1.90;;;;;;;-146.27;58.95;82504.72;5036131;28;20389;-73
2023/05/29 08:07:06;;;;;;;12.00;2.20;;;;;;;-146.27;56.26;82528.81;5036092;28;20034;-74
2023/05/29 08:09:31;;;;;;;10.00;1.92;;;;;;;-146.27;58.68;82536.84;5033672;28;20031;-72
2023/05/29 08:11:57;;;;;;;10.27;2.20;;;;;;;-146.27;57.83;82440.44;5043380;28;20592;-73
2023/05/29 08:14:22;;;;;;;9.27;2.00;;;;;;;-146.27;54.96;82452.47;5038679;28;20064;-74
2023/05/29 08:16:48;;;;;;;12.13;2.10;;;;;;;-146.27;54.86;82442.44;5034927;28;20037;-73
2023/05/29 08:19:13;;;;;;;9.85;2.63;;;;;;;-146.27;54.61;82486.63;5045697;28;20025;-74
2023/05/29 08:21:39;;;;;;;6.18;1.45;;;;;;;-146.27;52.11;82472.56;5050329;28;20051;-72
2023/05/29 08:24:05;;;;;;;12.55;2.45;;;;;;;-146.27;51.63;82430.38;5062763;28;20024;-73
2023/05/29 08:26:31;;;;;;;10.50;2.75;;;;;;;-146.27;52.10;82396.25;5043241;28;20495;-72
2023/05/29 08:28:56;;;;;;;8.13;2.00;;;;;;;-146.27;51.45;82466.56;5039545;28;20156;-73
2023/05/29 08:31:24;;;;;;;11.93;2.15;;;;;;;-146.27;51.44;82410.31;5034801;28;20045;-73
2023/05/29 08:33:50;;;;;;;8.82;2.58;;;;;;;-146.27;51.54;82470.56;5048883;28;20476;-73
2023/05/29 08:36:17;;;;;;;12.15;1.95;;;;;;;-146.27;51.01;82440.44;5064243;28;20032;-73
2023/05/29 08:38:42;;;;;;;13.07;1.85;;;;;;;-146.27;52.15;82434.41;5033582;28;20581;-73
2023/05/29 08:41:12;;;;;;;6.80;1.55;;;;;;;-146.27;48.42;82420.34;5032945;28;20029;-73
2023/05/29 08:43:41;;;;;;;11.45;2.35;;;;;;;-146.27;50.51;82410.31;5040863;28;20026;-73
2023/05/29 08:46:07;;;;;;;26.17;2.58;;;;;;;-146.27;48.72;82378.16;5037254;28;20044;-73
2023/05/29 08:48:38;;;;;;;14.15;2.33;;;;;;;-146.27;49.23;82368.13;5034049;28;20037;-71
2023/05/29 08:51:06;;;;;;;9.27;2.08;;;;;;;-146.27;47.74;82321.91;5035238;28;20486;-76
2023/05/29 08:53:32;;;;;;;7.10;2.05;;;;;;;-146.27;48.29;82263.66;5032116;28;20044;-75
2023/05/29 08:55:58;;;;;;;11.00;2.28;;;;;;;-146.27;48.23;82293.78;5037405;28;20021;-75
2023/05/29 08:58:24;;;;;;;10.48;2.00;;;;;;;-146.27;47.99;82241.56;5037660;28;20373;-74
2023/05/29 09:00:51;;;;;;;11.90;1.70;;;;;;;-146.27;46.77;82235.53;5039251;28;20025;-75
2023/05/29 09:03:17;;;;;;;11.85;1.90;;;;;;;-146.27;47.53;82263.66;5038331;28;20087;-74
2023/05/29 09:05:43;;;;;;;13.70;2.20;;;;;;;-146.27;46.47;82239.56;5036280;28;20022;-72
2023/05/29 09:08:11;;;;;;;9.27;2.15;;;;;;;-146.27;47.60;82323.91;5036089;28;20508;-69
2023/05/29 09:10:43;;;;;;;8.40;1.85;;;;;;;-146.27;47.17;82217.47;5044338;28;20025;-68
2023/05/29 09:13:09;;;;;;;16.45;3.45;;;;;;;-146.27;47.92;82193.34;5037990;28;20250;-68
2023/05/29 09:15:38;;;;;;;5.47;1.70;;;;;;;-146.27;46.73;82265.66;5047968;28;20487;-74
2023/05/29 09:18:04;;;;;;;11.95;2.38;;;;;;;-146.27;47.68;82235.53;5043155;28;20044;-74
2023/05/29 09:20:30;;;;;;;15.50;2.47;;;;;;;-146.27;46.43;82225.50;5046950;28;20021;-74
2023/05/29 09:23:08;;;;;;;9.50;2.03;;;;;;;-146.27;47.45;82215.44;5034557;28;20032;-74
2023/05/29 09:25:39;;;;;;;9.32;1.60;;;;;;;-146.27;48.11;82153.19;5037195;28;20025;-71
2023/05/29 09:28:08;;;;;;;11.57;2.20;;;;;;;-146.27;46.75;82149.16;5029738;28;20029;-73
2023/05/29 09:30:49;;;;;;;6.32;1.90;;;;;;;-146.27;45.93;82050.75;5034446;28;20072;-72
2023/05/29 09:33:16;;;;;;;11.90;2.25;;;;;;;-146.27;45.69;82155.19;5054610;28;20079;-73
2023/05/29 09:35:41;;;;;;;9.80;1.60;;;;;;;-146.27;45.99;82102.97;5050270;28;20057;-71
2023/05/29 09:38:10;;;;;;;7.43;2.35;;;;;;;-146.27;45.32;82123.06;5050081;28;20064;-73
2023/05/29 09:40:37;;;;;;;9.90;2.70;;;;;;;-146.27;46.13;82102.97;5040486;28;20461;-72
2023/05/29 09:43:13;;;;;;;10.55;2.40;;;;;;;-146.27;47.91;82090.91;5035655;28;20389;-72
2023/05/29 09:45:41;;;;;;;8.70;1.73;;;;;;;-146.27;45.90;82038.69;5038643;28;20369;-72
2023/05/29 09:48:11;;;;;;;13.63;1.80;;;;;;;-146.27;46.63;81984.47;5053181;28;20485;-72
2023/05/29 09:50:37;;;;;;;15.88;2.50;;;;;;;-146.27;45.30;81954.31;5036864;28;20040;-72
2023/05/29 09:53:03;;;;;;;10.00;1.60;;;;;;;-146.27;45.82;81954.31;5040407;28;20393;-72
2023/05/29 09:55:31;;;;;;;12.60;2.05;;;;;;;-146.27;44.13;81952.31;5056266;28;20033;-71
2023/05/29 09:57:58;;;;;;;8.32;1.85;;;;;;;-146.27;44.52;81882.00;5033610;28;20021;-74
2023/05/29 10:00:24;;;;;;;10.13;1.70;;;;;;;-146.27;44.05;81886.03;5040518;28;20033;-70
2023/05/29 10:02:50;;;;;;;10.13;1.52;;;;;;;-146.27;44.92;81833.81;5047349;28;20033;-72
2023/05/29 10:05:15;;;;;;;10.57;2.35;;;;;;;-146.27;43.25;81801.69;5040957;28;20029;-71
2023/05/29 10:07:49;;;;;;;12.00;2.03;;;;;;;-146.27;43.30;81789.63;5038282;28;20026;-72
2023/05/29 10:10:18;;;;;;;11.43;2.08;;;;;;;-146.27;43.46;81761.50;5034355;28;20029;-72
2023/05/29 10:12:49;;;;;;;6.45;2.50;;;;;;;-146.27;43.43;81737.41;5045387;28;20457;-71
2023/05/29 10:15:16;;;;;;;9.27;1.77;;;;;;;-146.27;41.47;81675.16;5046251;28;20052;-72
2023/05/29 10:17:51;;;;;;;8.80;2.00;;;;;;;-146.27;41.89;81673.13;5053418;28;20028;-72
2023/05/29 10:20:17;;;;;;;7.85;1.90;;;;;;;-146.27;42.10;81673.13;5043373;28;20025;-72
2023/05/29 10:22:46;;;;;;;10.40;2.17;;;;;;;-146.27;42.44;81592.78;5039993;28;20040;-72
2023/05/29 10:25:15;;;;;;;8.00;2.17;;;;;;;-146.27;42.33;81645.00;5041096;28;20112;-72
2023/05/29 10:27:42;;;;;;;12.70;2.20;;;;;;;-146.27;42.22;81665.09;5040798;28;20025;-72
2023/05/29 10:30:29;;;;;;;6.97;1.75;;;;;;;-146.27;43.23;81645.00;5036641;28;20030;-72
2023/05/29 10:33:09;;;;;;;10.88;2.25;;;;;;;-146.27;42.80;81588.78;5037896;28;20159;-72
2023/05/29 10:35:53;;;;;;;10.60;2.17;;;;;;;-146.27;42.80;81602.84;5047407;28;20051;-72
2023/05/29 10:38:21;;;;;;;13.20;2.33;;;;;;;-146.27;41.68;81592.78;5036876;28;20033;-73
2023/05/29 10:40:46;;;;;;;11.98;2.10;;;;;;;-146.27;41.90;81580.75;5032813;28;20033;-77
2023/05/29 10:43:33;;;;;;;10.38;1.95;;;;;;;-146.27;39.40;81548.59;5040836;28;20453;-73
2023/05/29 10:46:02;;;;;;;12.05;2.22;;;;;;;-146.27;38.96;81556.66;5037997;28;20039;-69
2023/05/29 10:48:30;;;;;;;10.65;1.83;;;;;;;-146.27;39.69;81524.50;5047246;28;20025;-69
2023/05/29 10:50:56;;;;;;;8.00;1.95;;;;;;;-146.27;39.41;81540.56;5049723;28;20037;-75
2023/05/29 10:53:26;;;;;;;10.60;2.10;;;;;;;-146.27;39.28;81448.19;5046059;28;20032;-75
2023/05/29 10:55:53;;;;;;;15.65;2.15;;;;;;;-146.27;39.40;81400.00;5044795;28;20377;-75
2023/05/29 10:58:20;;;;;;;14.57;2.05;;;;;;;-146.27;37.61;81426.09;5051728;28;20025;-76
2023/05/29 11:00:46;;;;;;;7.43;2.40;;;;;;;-146.27;39.16;81432.13;5039460;28;20096;-75
2023/05/29 11:03:20;;;;;;;15.93;2.38;;;;;;;-146.27;38.57;81414.06;5049552;28;20033;-75
2023/05/29 11:06:07;;;;;;;14.77;2.92;;;;;;;-146.27;39.92;81311.63;5048164;28;20036;-74
2023/05/29 11:08:34;;;;;;;10.38;2.90;;;;;;;-146.27;39.73;81307.63;5036539;28;20423;-76